sensor_id;sensor_type;location;lat;lon;timestamp;pressure;altitude;pressure_sealevel;temperature;humidity
55289;BME280;41154;45.394;5.734;2023-03-31T00:02:18;96868.25;;;9.96;100.00
55289;BME280;41154;45.394;5.734;2023-03-31T00:04:46;96873.81;;;10.12;100.00
55289;BME280;41154;45.394;5.734;2023-03-31T00:07:18;96879.34;;;10.05;100.00
55289;BME280;41154;45.394;5.734;2023-03-31T00:09:50;96877.63;;;9.77;100.00
55289;BME280;41154;45.394;5.734;2023-03-31T00:12:19;96868.22;;;9.91;100.00
55289;BME280;41154;45.394;5.734;2023-03-31T00:14:46;96858.72;;;9.83;100.00
55289;BME280;41154;45.394;5.734;2023-03-31T00:17:11;96855.22;;;9.83;100.00
55289;BME280;41154;45.394;5.734;2023-03-31T00:19:38;96849.34;;;10.08;100.00
55289;BME280;41154;45.394;5.734;2023-03-31T00:22:04;96848.28;;;10.31;100.00
55289;BME280;41154;45.394;5.734;2023-03-31T00:24:31;96853.59;;;10.26;100.00
55289;BME280;41154;45.394;5.734;2023-03-31T00:27:06;96856.78;;;10.23;100.00
55289;BME280;41154;45.394;5.734;2023-03-31T00:29:32;96854.41;;;10.04;100.00
55289;BME280;41154;45.394;5.734;2023-03-31T00:32:00;96852.41;;;10.17;100.00
55289;BME280;41154;45.394;5.734;2023-03-31T00:34:26;96843.69;;;10.04;100.00
55289;BME280;41154;45.394;5.734;2023-03-31T00:36:53;96844.41;;;10.22;100.00
55289;BME280;41154;45.394;5.734;2023-03-31T00:39:21;96836.13;;;10.46;100.00
55289;BME280;41154;45.394;5.734;2023-03-31T00:41:48;96834.47;;;10.39;100.00
55289;BME280;41154;45.394;5.734;2023-03-31T00:49:28;96843.31;;;10.18;100.00
55289;BME280;41154;45.394;5.734;2023-03-31T00:52:03;96842.31;;;10.24;100.00
55289;BME280;41154;45.394;5.734;2023-03-31T00:54:31;96841.31;;;10.30;100.00
55289;BME280;41154;45.394;5.734;2023-03-31T00:56:58;96851.22;;;10.30;100.00
55289;BME280;41154;45.394;5.734;2023-03-31T00:59:29;96842.13;;;10.31;100.00
55289;BME280;41154;45.394;5.734;2023-03-31T01:01:57;96848.63;;;10.35;100.00
55289;BME280;41154;45.394;5.734;2023-03-31T01:04:30;96852.03;;;10.30;100.00
55289;BME280;41154;45.394;5.734;2023-03-31T01:07:17;96841.31;;;10.30;100.00
55289;BME280;41154;45.394;5.734;2023-03-31T01:09:47;96826.56;;;10.55;100.00
55289;BME280;41154;45.394;5.734;2023-03-31T01:12:16;96805.88;;;10.28;100.00
55289;BME280;41154;45.394;5.734;2023-03-31T01:14:43;96788.72;;;10.24;100.00
55289;BME280;41154;45.394;5.734;2023-03-31T01:17:09;96790.69;;;10.34;100.00
55289;BME280;41154;45.394;5.734;2023-03-31T01:40:19;96724.69;;;10.60;100.00
55289;BME280;41154;45.394;5.734;2023-03-31T01:43:06;96709.63;;;10.96;100.00
55289;BME280;41154;45.394;5.734;2023-03-31T01:50:57;96675.41;;;11.19;100.00
55289;BME280;41154;45.394;5.734;2023-03-31T01:56:33;96681.66;;;10.82;100.00
55289;BME280;41154;45.394;5.734;2023-03-31T01:59:10;96659.84;;;10.73;100.00
55289;BME280;41154;45.394;5.734;2023-03-31T02:01:54;96644.94;;;10.93;100.00
55289;BME280;41154;45.394;5.734;2023-03-31T02:04:27;96655.25;;;10.64;100.00
55289;BME280;41154;45.394;5.734;2023-03-31T02:07:02;96629.19;;;10.54;100.00
55289;BME280;41154;45.394;5.734;2023-03-31T02:09:34;96639.38;;;10.57;100.00
55289;BME280;41154;45.394;5.734;2023-03-31T02:12:05;96620.63;;;10.57;100.00
55289;BME280;41154;45.394;5.734;2023-03-31T02:14:33;96615.78;;;10.59;100.00
55289;BME280;41154;45.394;5.734;2023-03-31T02:17:01;96599.91;;;10.47;100.00
55289;BME280;41154;45.394;5.734;2023-03-31T02:19:34;96608.25;;;10.56;100.00
55289;BME280;41154;45.394;5.734;2023-03-31T02:22:05;96605.03;;;10.49;100.00
55289;BME280;41154;45.394;5.734;2023-03-31T02:24:33;96616.53;;;10.44;100.00
55289;BME280;41154;45.394;5.734;2023-03-31T02:27:05;96624.25;;;10.40;100.00
55289;BME280;41154;45.394;5.734;2023-03-31T02:29:33;96614.81;;;10.33;100.00
55289;BME280;41154;45.394;5.734;2023-03-31T02:34:32;96609.66;;;10.64;100.00
55289;BME280;41154;45.394;5.734;2023-03-31T02:36:58;96610.25;;;10.76;100.00
55289;BME280;41154;45.394;5.734;2023-03-31T02:39:28;96603.31;;;10.85;100.00
55289;BME280;41154;45.394;5.734;2023-03-31T02:41:55;96599.09;;;11.00;100.00
55289;BME280;41154;45.394;5.734;2023-03-31T02:44:22;96602.06;;;11.03;100.00
55289;BME280;41154;45.394;5.734;2023-03-31T02:46:50;96596.19;;;11.22;100.00
55289;BME280;41154;45.394;5.734;2023-03-31T02:49:17;96582.78;;;11.22;100.00
55289;BME280;41154;45.394;5.734;2023-03-31T03:00:40;96556.41;;;10.98;100.00
55289;BME280;41154;45.394;5.734;2023-03-31T03:11:41;96556.97;;;11.05;100.00
55289;BME280;41154;45.394;5.734;2023-03-31T03:17:08;96551.03;;;10.93;100.00
55289;BME280;41154;45.394;5.734;2023-03-31T03:19:36;96529.03;;;10.91;100.00
55289;BME280;41154;45.394;5.734;2023-03-31T03:22:10;96522.56;;;10.87;100.00
55289;BME280;41154;45.394;5.734;2023-03-31T03:24:41;96517.22;;;10.92;100.00
55289;BME280;41154;45.394;5.734;2023-03-31T03:27:14;96511.03;;;10.91;100.00
55289;BME280;41154;45.394;5.734;2023-03-31T03:29:44;96523.13;;;10.94;100.00
55289;BME280;41154;45.394;5.734;2023-03-31T03:32:15;96532.56;;;11.02;100.00
55289;BME280;41154;45.394;5.734;2023-03-31T03:34:45;96546.50;;;11.04;100.00
55289;BME280;41154;45.394;5.734;2023-03-31T03:37:16;96548.41;;;11.13;100.00
55289;BME280;41154;45.394;5.734;2023-03-31T03:39:46;96539.59;;;11.28;100.00
55289;BME280;41154;45.394;5.734;2023-03-31T03:42:16;96546.28;;;11.21;100.00
55289;BME280;41154;45.394;5.734;2023-03-31T03:44:45;96506.03;;;11.21;100.00
55289;BME280;41154;45.394;5.734;2023-03-31T03:47:13;96501.19;;;11.28;100.00
55289;BME280;41154;45.394;5.734;2023-03-31T03:49:39;96490.72;;;11.31;100.00
55289;BME280;41154;45.394;5.734;2023-03-31T03:52:04;96492.84;;;11.24;100.00
55289;BME280;41154;45.394;5.734;2023-03-31T03:54:31;96509.22;;;11.18;100.00
55289;BME280;41154;45.394;5.734;2023-03-31T03:56:57;96518.34;;;11.22;100.00
55289;BME280;41154;45.394;5.734;2023-03-31T03:59:22;96521.31;;;11.25;100.00
55289;BME280;41154;45.394;5.734;2023-03-31T04:01:48;96531.81;;;11.27;100.00
55289;BME280;41154;45.394;5.734;2023-03-31T04:04:14;96544.69;;;11.35;100.00
55289;BME280;41154;45.394;5.734;2023-03-31T04:06:40;96549.78;;;11.26;100.00
55289;BME280;41154;45.394;5.734;2023-03-31T04:09:07;96554.06;;;11.27;100.00
55289;BME280;41154;45.394;5.734;2023-03-31T04:11:34;96540.66;;;11.32;100.00
55289;BME280;41154;45.394;5.734;2023-03-31T04:14:00;96538.22;;;11.31;100.00
55289;BME280;41154;45.394;5.734;2023-03-31T04:16:26;96553.25;;;11.22;100.00
55289;BME280;41154;45.394;5.734;2023-03-31T04:18:52;96548.72;;;11.22;100.00
55289;BME280;41154;45.394;5.734;2023-03-31T04:21:21;96560.78;;;11.25;100.00
55289;BME280;41154;45.394;5.734;2023-03-31T04:23:53;96569.63;;;11.15;100.00
55289;BME280;41154;45.394;5.734;2023-03-31T04:26:33;96575.25;;;11.13;100.00
55289;BME280;41154;45.394;5.734;2023-03-31T04:29:13;96585.97;;;11.08;100.00
55289;BME280;41154;45.394;5.734;2023-03-31T04:31:42;96595.66;;;11.20;100.00
55289;BME280;41154;45.394;5.734;2023-03-31T04:34:09;96580.34;;;11.10;100.00
55289;BME280;41154;45.394;5.734;2023-03-31T04:36:43;96584.34;;;11.02;100.00
55289;BME280;41154;45.394;5.734;2023-03-31T04:39:13;96576.81;;;11.04;100.00
55289;BME280;41154;45.394;5.734;2023-03-31T04:41:40;96576.81;;;10.99;100.00
55289;BME280;41154;45.394;5.734;2023-03-31T04:44:06;96577.94;;;11.08;100.00
55289;BME280;41154;45.394;5.734;2023-03-31T04:46:33;96585.97;;;11.08;100.00
55289;BME280;41154;45.394;5.734;2023-03-31T04:48:59;96569.88;;;11.03;100.00
55289;BME280;41154;45.394;5.734;2023-03-31T04:51:26;96559.94;;;11.09;100.00
55289;BME280;41154;45.394;5.734;2023-03-31T04:53:52;96569.31;;;11.01;100.00
55289;BME280;41154;45.394;5.734;2023-03-31T04:56:17;96585.69;;;11.05;100.00
55289;BME280;41154;45.394;5.734;2023-03-31T04:58:43;96569.03;;;11.03;100.00
55289;BME280;41154;45.394;5.734;2023-03-31T05:01:09;96561.56;;;11.05;100.00
55289;BME280;41154;45.394;5.734;2023-03-31T05:03:38;96562.88;;;10.97;100.00
55289;BME280;41154;45.394;5.734;2023-03-31T05:06:04;96591.03;;;10.94;100.00
55289;BME280;41154;45.394;5.734;2023-03-31T05:08:30;96607.97;;;11.05;100.00
55289;BME280;41154;45.394;5.734;2023-03-31T05:10:56;96588.66;;;11.03;100.00
55289;BME280;41154;45.394;5.734;2023-03-31T05:13:22;96608.25;;;11.04;100.00
55289;BME280;41154;45.394;5.734;2023-03-31T05:15:48;96601.50;;;11.06;100.00
55289;BME280;41154;45.394;5.734;2023-03-31T05:18:16;96603.63;;;10.94;100.00
55289;BME280;41154;45.394;5.734;2023-03-31T05:20:43;96585.13;;;10.97;100.00
55289;BME280;41154;45.394;5.734;2023-03-31T05:23:09;96592.34;;;10.92;100.00
55289;BME280;41154;45.394;5.734;2023-03-31T05:25:35;96582.19;;;10.99;100.00
55289;BME280;41154;45.394;5.734;2023-03-31T05:28:01;96593.97;;;10.98;100.00
55289;BME280;41154;45.394;5.734;2023-03-31T05:30:28;96588.91;;;11.02;100.00
55289;BME280;41154;45.394;5.734;2023-03-31T05:32:54;96577.06;;;10.97;100.00
55289;BME280;41154;45.394;5.734;2023-03-31T05:35:20;96590.50;;;11.03;100.00
55289;BME280;41154;45.394;5.734;2023-03-31T05:37:46;96587.50;;;10.89;100.00
55289;BME280;41154;45.394;5.734;2023-03-31T05:40:12;96590.19;;;10.89;100.00
55289;BME280;41154;45.394;5.734;2023-03-31T05:42:37;96581.06;;;10.90;100.00
55289;BME280;41154;45.394;5.734;2023-03-31T05:45:04;96589.13;;;10.90;100.00
55289;BME280;41154;45.394;5.734;2023-03-31T05:47:30;96591.81;;;10.90;100.00
55289;BME280;41154;45.394;5.734;2023-03-31T05:49:56;96591.50;;;10.81;100.00
55289;BME280;41154;45.394;5.734;2023-03-31T05:52:25;96598.22;;;10.89;100.00
55289;BME280;41154;45.394;5.734;2023-03-31T05:54:51;96600.06;;;10.78;100.00
55289;BME280;41154;45.394;5.734;2023-03-31T05:57:17;96589.09;;;10.85;100.00
55289;BME280;41154;45.394;5.734;2023-03-31T05:59:43;96604.63;;;10.83;100.00
55289;BME280;41154;45.394;5.734;2023-03-31T06:02:12;96607.03;;;10.79;100.00
55289;BME280;41154;45.394;5.734;2023-03-31T06:04:38;96598.41;;;10.72;100.00
55289;BME280;41154;45.394;5.734;2023-03-31T06:07:04;96611.03;;;10.71;100.00
55289;BME280;41154;45.394;5.734;2023-03-31T06:09:49;96590.25;;;11.04;100.00
55289;BME280;41154;45.394;5.734;2023-03-31T06:12:14;96602.59;;;11.05;100.00
55289;BME280;41154;45.394;5.734;2023-03-31T06:14:41;96593.72;;;10.94;100.00
55289;BME280;41154;45.394;5.734;2023-03-31T06:17:06;96594.47;;;10.85;100.00
55289;BME280;41154;45.394;5.734;2023-03-31T06:19:32;96581.38;;;10.99;100.00
55289;BME280;41154;45.394;5.734;2023-03-31T06:21:58;96578.78;;;10.61;100.00
55289;BME280;41154;45.394;5.734;2023-03-31T06:24:24;96561.53;;;10.47;100.00
55289;BME280;41154;45.394;5.734;2023-03-31T06:26:49;96571.25;;;10.58;100.00
55289;BME280;41154;45.394;5.734;2023-03-31T06:29:15;96570.72;;;10.56;100.00
55289;BME280;41154;45.394;5.734;2023-03-31T06:31:41;96560.47;;;10.42;100.00
55289;BME280;41154;45.394;5.734;2023-03-31T06:34:06;96561.59;;;10.52;100.00
55289;BME280;41154;45.394;5.734;2023-03-31T06:36:32;96558.31;;;10.39;100.00
55289;BME280;41154;45.394;5.734;2023-03-31T06:38:58;96549.00;;;10.63;100.00
55289;BME280;41154;45.394;5.734;2023-03-31T06:41:24;96570.53;;;10.78;100.00
55289;BME280;41154;45.394;5.734;2023-03-31T06:43:50;96588.28;;;10.84;100.00
55289;BME280;41154;45.394;5.734;2023-03-31T06:46:16;96606.69;;;10.65;100.00
55289;BME280;41154;45.394;5.734;2023-03-31T06:52:34;96586.13;;;10.81;100.00
55289;BME280;41154;45.394;5.734;2023-03-31T06:55:00;96590.50;;;10.97;100.00
55289;BME280;41154;45.394;5.734;2023-03-31T06:57:26;96613.19;;;10.74;100.00
55289;BME280;41154;45.394;5.734;2023-03-31T06:59:52;96605.66;;;10.66;100.00
55289;BME280;41154;45.394;5.734;2023-03-31T07:02:18;96605.06;;;10.59;100.00
55289;BME280;41154;45.394;5.734;2023-03-31T07:04:44;96624.78;;;10.80;100.00
55289;BME280;41154;45.394;5.734;2023-03-31T07:07:10;96626.34;;;10.71;100.00
55289;BME280;41154;45.394;5.734;2023-03-31T07:09:35;96617.69;;;10.64;100.00
55289;BME280;41154;45.394;5.734;2023-03-31T07:12:02;96603.94;;;10.55;100.00
55289;BME280;41154;45.394;5.734;2023-03-31T07:14:30;96586.19;;;10.43;100.00
55289;BME280;41154;45.394;5.734;2023-03-31T07:16:57;96581.91;;;10.42;100.00
55289;BME280;41154;45.394;5.734;2023-03-31T07:19:22;96598.81;;;10.48;100.00
55289;BME280;41154;45.394;5.734;2023-03-31T07:21:48;96600.81;;;10.63;100.00
55289;BME280;41154;45.394;5.734;2023-03-31T07:24:14;96592.38;;;10.97;100.00
55289;BME280;41154;45.394;5.734;2023-03-31T07:26:40;96583.28;;;11.03;100.00
55289;BME280;41154;45.394;5.734;2023-03-31T07:29:06;96576.50;;;10.90;100.00
55289;BME280;41154;45.394;5.734;2023-03-31T07:31:32;96557.75;;;10.95;100.00
55289;BME280;41154;45.394;5.734;2023-03-31T07:33:58;96552.28;;;10.75;100.00
55289;BME280;41154;45.394;5.734;2023-03-31T07:36:25;96581.91;;;10.42;100.00
55289;BME280;41154;45.394;5.734;2023-03-31T07:38:51;96595.13;;;10.59;100.00
55289;BME280;41154;45.394;5.734;2023-03-31T07:41:19;96567.13;;;10.93;100.00
55289;BME280;41154;45.394;5.734;2023-03-31T07:43:45;96573.75;;;10.70;100.00
55289;BME280;41154;45.394;5.734;2023-03-31T07:46:18;96582.59;;;10.70;100.00
55289;BME280;41154;45.394;5.734;2023-03-31T07:48:45;96596.06;;;10.33;100.00
55289;BME280;41154;45.394;5.734;2023-03-31T07:51:13;96618.56;;;10.32;100.00
55289;BME280;41154;45.394;5.734;2023-03-31T07:53:39;96637.44;;;10.47;100.00
55289;BME280;41154;45.394;5.734;2023-03-31T07:56:05;96633.53;;;10.28;100.00
55289;BME280;41154;45.394;5.734;2023-03-31T07:58:31;96627.72;;;10.36;100.00
55289;BME280;41154;45.394;5.734;2023-03-31T08:00:56;96630.03;;;10.27;100.00
55289;BME280;41154;45.394;5.734;2023-03-31T08:03:22;96678.66;;;10.08;100.00
55289;BME280;41154;45.394;5.734;2023-03-31T08:05:50;96686.75;;;10.14;100.00
55289;BME280;41154;45.394;5.734;2023-03-31T08:08:17;96698.25;;;10.14;100.00
55289;BME280;41154;45.394;5.734;2023-03-31T08:10:42;96695.03;;;10.12;100.00
55289;BME280;41154;45.394;5.734;2023-03-31T08:13:09;96713.75;;;10.07;100.00
55289;BME280;41154;45.394;5.734;2023-03-31T08:15:35;96723.34;;;10.03;100.00
55289;BME280;41154;45.394;5.734;2023-03-31T08:18:02;96716.94;;;10.04;100.00
55289;BME280;41154;45.394;5.734;2023-03-31T08:20:29;96704.25;;;10.21;100.00
55289;BME280;41154;45.394;5.734;2023-03-31T08:22:55;96702.41;;;10.27;100.00
55289;BME280;41154;45.394;5.734;2023-03-31T08:25:20;96691.72;;;10.32;100.00
55289;BME280;41154;45.394;5.734;2023-03-31T08:27:48;96700.78;;;10.26;100.00
55289;BME280;41154;45.394;5.734;2023-03-31T08:30:17;96703.50;;;10.31;100.00
55289;BME280;41154;45.394;5.734;2023-03-31T08:32:43;96706.69;;;10.28;100.00
55289;BME280;41154;45.394;5.734;2023-03-31T08:35:09;96698.81;;;10.43;100.00
55289;BME280;41154;45.394;5.734;2023-03-31T08:37:36;96697.34;;;10.31;100.00
55289;BME280;41154;45.394;5.734;2023-03-31T08:40:04;96681.06;;;10.37;100.00
55289;BME280;41154;45.394;5.734;2023-03-31T08:43:06;96664.56;;;10.51;100.00
55289;BME280;41154;45.394;5.734;2023-03-31T08:45:37;96673.31;;;10.78;100.00
55289;BME280;41154;45.394;5.734;2023-03-31T08:50:50;96654.22;;;10.70;100.00
55289;BME280;41154;45.394;5.734;2023-03-31T08:53:41;96651.09;;;10.83;100.00
55289;BME280;41154;45.394;5.734;2023-03-31T08:56:14;96660.97;;;10.83;100.00
55289;BME280;41154;45.394;5.734;2023-03-31T08:58:46;96661.28;;;10.86;100.00
55289;BME280;41154;45.394;5.734;2023-03-31T09:12:19;96655.63;;;11.51;100.00
55289;BME280;41154;45.394;5.734;2023-03-31T09:19:55;96661.72;;;11.21;100.00
55289;BME280;41154;45.394;5.734;2023-03-31T09:22:36;96662.19;;;11.07;100.00
55289;BME280;41154;45.394;5.734;2023-03-31T09:27:38;96660.09;;;11.20;100.00
55289;BME280;41154;45.394;5.734;2023-03-31T09:30:28;96641.41;;;11.56;100.00
55289;BME280;41154;45.394;5.734;2023-03-31T09:33:14;96640.19;;;12.20;100.00
55289;BME280;41154;45.394;5.734;2023-03-31T09:35:41;96639.66;;;12.13;100.00
55289;BME280;41154;45.394;5.734;2023-03-31T09:38:10;96646.63;;;12.45;100.00
55289;BME280;41154;45.394;5.734;2023-03-31T09:40:37;96643.66;;;12.31;100.00
55289;BME280;41154;45.394;5.734;2023-03-31T09:43:06;96639.28;;;12.86;100.00
55289;BME280;41154;45.394;5.734;2023-03-31T09:45:33;96630.59;;;14.10;100.00
55289;BME280;41154;45.394;5.734;2023-03-31T09:48:13;96622.75;;;13.74;100.00
55289;BME280;41154;45.394;5.734;2023-03-31T09:50:48;96625.00;;;14.35;100.00
55289;BME280;41154;45.394;5.734;2023-03-31T09:53:20;96620.66;;;14.69;100.00
55289;BME280;41154;45.394;5.734;2023-03-31T09:55:52;96613.81;;;15.44;100.00
55289;BME280;41154;45.394;5.734;2023-03-31T09:58:20;96611.16;;;15.01;100.00
55289;BME280;41154;45.394;5.734;2023-03-31T10:01:03;96587.22;;;14.89;100.00
55289;BME280;41154;45.394;5.734;2023-03-31T10:03:31;96588.25;;;14.69;100.00
55289;BME280;41154;45.394;5.734;2023-03-31T10:06:07;96592.41;;;14.85;100.00
55289;BME280;41154;45.394;5.734;2023-03-31T10:08:56;96586.19;;;14.85;100.00
55289;BME280;41154;45.394;5.734;2023-03-31T10:11:23;96594.47;;;15.18;100.00
55289;BME280;41154;45.394;5.734;2023-03-31T10:13:52;96587.13;;;15.80;100.00
55289;BME280;41154;45.394;5.734;2023-03-31T10:16:32;96570.22;;;15.89;100.00
55289;BME280;41154;45.394;5.734;2023-03-31T10:21:47;96588.41;;;16.35;100.00
55289;BME280;41154;45.394;5.734;2023-03-31T10:24:17;96580.47;;;15.73;100.00
55289;BME280;41154;45.394;5.734;2023-03-31T10:26:47;96571.59;;;16.05;100.00
55289;BME280;41154;45.394;5.734;2023-03-31T10:29:19;96574.56;;;15.71;100.00
55289;BME280;41154;45.394;5.734;2023-03-31T10:31:47;96569.13;;;16.69;100.00
55289;BME280;41154;45.394;5.734;2023-03-31T10:34:14;96573.44;;;16.98;100.00
55289;BME280;41154;45.394;5.734;2023-03-31T10:36:50;96546.69;;;16.36;100.00
55289;BME280;41154;45.394;5.734;2023-03-31T10:39:17;96541.50;;;16.40;100.00
55289;BME280;41154;45.394;5.734;2023-03-31T10:41:49;96536.91;;;16.40;100.00
55289;BME280;41154;45.394;5.734;2023-03-31T10:47:04;96527.41;;;15.96;100.00
55289;BME280;41154;45.394;5.734;2023-03-31T10:49:37;96501.09;;;16.43;100.00
55289;BME280;41154;45.394;5.734;2023-03-31T10:52:33;96510.63;;;17.10;100.00
55289;BME280;41154;45.394;5.734;2023-03-31T10:55:11;96520.03;;;16.29;100.00
55289;BME280;41154;45.394;5.734;2023-03-31T10:57:54;96509.63;;;15.90;100.00
55289;BME280;41154;45.394;5.734;2023-03-31T11:00:37;96500.47;;;16.18;100.00
55289;BME280;41154;45.394;5.734;2023-03-31T11:03:16;96501.66;;;16.12;100.00
55289;BME280;41154;45.394;5.734;2023-03-31T11:06:16;96512.84;;;16.39;100.00
55289;BME280;41154;45.394;5.734;2023-03-31T11:08:47;96500.81;;;17.37;100.00
55289;BME280;41154;45.394;5.734;2023-03-31T11:16:51;96496.66;;;17.53;100.00
55289;BME280;41154;45.394;5.734;2023-03-31T11:19:39;96492.63;;;17.51;100.00
55289;BME280;41154;45.394;5.734;2023-03-31T11:22:23;96482.03;;;17.86;100.00
55289;BME280;41154;45.394;5.734;2023-03-31T11:33:45;96460.50;;;16.71;100.00
55289;BME280;41154;45.394;5.734;2023-03-31T11:36:25;96470.13;;;16.49;100.00
55289;BME280;41154;45.394;5.734;2023-03-31T11:38:57;96464.91;;;16.25;98.18
55289;BME280;41154;45.394;5.734;2023-03-31T11:41:38;96458.25;;;17.01;100.00
55289;BME280;41154;45.394;5.734;2023-03-31T11:44:11;96449.06;;;16.88;100.00
55289;BME280;41154;45.394;5.734;2023-03-31T11:46:47;96461.47;;;15.92;100.00
55289;BME280;41154;45.394;5.734;2023-03-31T11:49:33;96451.06;;;15.66;100.00
55289;BME280;41154;45.394;5.734;2023-03-31T11:52:33;96443.44;;;15.35;100.00
55289;BME280;41154;45.394;5.734;2023-03-31T11:57:38;96463.22;;;16.43;100.00
55289;BME280;41154;45.394;5.734;2023-03-31T12:02:45;96427.97;;;17.67;99.78
55289;BME280;41154;45.394;5.734;2023-03-31T12:05:14;96413.56;;;17.57;79.34
55289;BME280;41154;45.394;5.734;2023-03-31T12:07:46;96406.59;;;17.65;83.12
55289;BME280;41154;45.394;5.734;2023-03-31T12:10:36;96392.00;;;18.15;84.21
55289;BME280;41154;45.394;5.734;2023-03-31T12:18:37;96404.34;;;16.63;80.13
55289;BME280;41154;45.394;5.734;2023-03-31T12:21:09;96401.75;;;17.08;80.03
55289;BME280;41154;45.394;5.734;2023-03-31T12:23:40;96388.97;;;18.08;79.31
55289;BME280;41154;45.394;5.734;2023-03-31T12:29:06;96389.91;;;18.61;72.31
55289;BME280;41154;45.394;5.734;2023-03-31T12:31:38;96388.47;;;18.63;69.62
55289;BME280;41154;45.394;5.734;2023-03-31T12:34:11;96395.94;;;18.40;68.52
55289;BME280;41154;45.394;5.734;2023-03-31T12:48:45;96358.09;;;17.10;69.38
55289;BME280;41154;45.394;5.734;2023-03-31T12:51:29;96353.22;;;17.20;66.44
55289;BME280;41154;45.394;5.734;2023-03-31T12:59:38;96353.03;;;16.94;66.49
55289;BME280;41154;45.394;5.734;2023-03-31T13:07:53;96328.28;;;16.73;66.96
55289;BME280;41154;45.394;5.734;2023-03-31T13:10:25;96319.44;;;16.81;66.53
55289;BME280;41154;45.394;5.734;2023-03-31T13:13:01;96312.59;;;16.61;63.78
55289;BME280;41154;45.394;5.734;2023-03-31T13:15:28;96297.91;;;16.40;63.31
55289;BME280;41154;45.394;5.734;2023-03-31T13:17:59;96294.50;;;16.34;67.72
55289;BME280;41154;45.394;5.734;2023-03-31T13:20:31;96297.28;;;16.43;69.90
55289;BME280;41154;45.394;5.734;2023-03-31T13:23:21;96300.31;;;16.41;69.60
55289;BME280;41154;45.394;5.734;2023-03-31T13:25:54;96295.09;;;16.31;66.84
55289;BME280;41154;45.394;5.734;2023-03-31T13:30:56;96274.44;;;15.85;69.15
55289;BME280;41154;45.394;5.734;2023-03-31T13:36:23;96293.53;;;15.46;70.59
55289;BME280;41154;45.394;5.734;2023-03-31T13:51:56;96273.06;;;14.80;76.03
55289;BME280;41154;45.394;5.734;2023-03-31T13:57:56;96308.41;;;14.97;75.91
55289;BME280;41154;45.394;5.734;2023-03-31T14:09:51;96321.38;;;14.43;77.71
55289;BME280;41154;45.394;5.734;2023-03-31T14:16:07;96295.97;;;13.82;82.76
55289;BME280;41154;45.394;5.734;2023-03-31T14:18:37;96330.09;;;13.68;87.60
55289;BME280;41154;45.394;5.734;2023-03-31T14:24:07;96368.41;;;13.35;93.58
55289;BME280;41154;45.394;5.734;2023-03-31T14:31:30;96462.38;;;12.42;100.00
55289;BME280;41154;45.394;5.734;2023-03-31T14:37:21;96427.88;;;11.63;100.00
55289;BME280;41154;45.394;5.734;2023-03-31T14:39:52;96401.81;;;11.69;100.00
55289;BME280;41154;45.394;5.734;2023-03-31T14:45:58;96400.38;;;12.13;100.00
55289;BME280;41154;45.394;5.734;2023-03-31T14:48:27;96406.88;;;12.62;100.00
55289;BME280;41154;45.394;5.734;2023-03-31T14:50:57;96405.97;;;13.16;100.00
55289;BME280;41154;45.394;5.734;2023-03-31T14:53:24;96411.25;;;13.31;100.00
55289;BME280;41154;45.394;5.734;2023-03-31T14:59:00;96412.44;;;13.84;100.00
55289;BME280;41154;45.394;5.734;2023-03-31T15:01:29;96402.78;;;14.02;100.00
55289;BME280;41154;45.394;5.734;2023-03-31T15:03:59;96405.91;;;14.33;100.00
55289;BME280;41154;45.394;5.734;2023-03-31T15:10:46;96394.53;;;13.93;100.00
55289;BME280;41154;45.394;5.734;2023-03-31T15:13:32;96383.63;;;13.79;100.00
55289;BME280;41154;45.394;5.734;2023-03-31T15:15:58;96376.75;;;13.92;100.00
55289;BME280;41154;45.394;5.734;2023-03-31T15:18:27;96373.19;;;13.97;100.00
55289;BME280;41154;45.394;5.734;2023-03-31T15:21:30;96381.25;;;13.73;100.00
55289;BME280;41154;45.394;5.734;2023-03-31T15:23:57;96383.44;;;13.71;100.00
55289;BME280;41154;45.394;5.734;2023-03-31T15:26:49;96397.47;;;13.68;100.00
55289;BME280;41154;45.394;5.734;2023-03-31T15:33:18;96412.28;;;13.70;100.00
55289;BME280;41154;45.394;5.734;2023-03-31T15:35:46;96413.06;;;13.46;99.99
55289;BME280;41154;45.394;5.734;2023-03-31T15:38:14;96403.72;;;13.34;99.82
55289;BME280;41154;45.394;5.734;2023-03-31T15:40:43;96408.34;;;13.23;100.00
55289;BME280;41154;45.394;5.734;2023-03-31T15:45:49;96413.25;;;13.16;100.00
55289;BME280;41154;45.394;5.734;2023-03-31T15:48:22;96405.03;;;13.36;98.05
55289;BME280;41154;45.394;5.734;2023-03-31T15:50:49;96408.41;;;13.52;100.00
55289;BME280;41154;45.394;5.734;2023-03-31T15:53:35;96403.72;;;13.92;92.27
55289;BME280;41154;45.394;5.734;2023-03-31T15:56:03;96420.19;;;14.15;89.89
55289;BME280;41154;45.394;5.734;2023-03-31T15:58:53;96409.38;;;13.91;94.21
55289;BME280;41154;45.394;5.734;2023-03-31T16:01:20;96408.50;;;13.71;88.49
55289;BME280;41154;45.394;5.734;2023-03-31T16:03:47;96403.09;;;13.71;85.58
55289;BME280;41154;45.394;5.734;2023-03-31T16:06:33;96405.63;;;13.62;88.26
55289;BME280;41154;45.394;5.734;2023-03-31T16:09:11;96406.00;;;13.51;90.60
55289;BME280;41154;45.394;5.734;2023-03-31T16:11:47;96409.88;;;13.39;93.49
55289;BME280;41154;45.394;5.734;2023-03-31T16:14:19;96403.00;;;13.57;94.47
55289;BME280;41154;45.394;5.734;2023-03-31T16:17:12;96402.72;;;13.54;93.93
55289;BME280;41154;45.394;5.734;2023-03-31T16:19:50;96408.25;;;13.68;96.32
55289;BME280;41154;45.394;5.734;2023-03-31T16:22:20;96392.81;;;14.02;95.85
55289;BME280;41154;45.394;5.734;2023-03-31T16:24:48;96386.47;;;13.88;95.42
55289;BME280;41154;45.394;5.734;2023-03-31T16:27:14;96382.47;;;14.10;100.00
55289;BME280;41154;45.394;5.734;2023-03-31T16:29:40;96407.16;;;13.98;100.00
55289;BME280;41154;45.394;5.734;2023-03-31T16:32:08;96399.34;;;13.96;95.71
55289;BME280;41154;45.394;5.734;2023-03-31T16:34:53;96414.59;;;14.30;92.95